createdAt,value
2022-12-15T00:00:02.702Z,24.76
2022-12-15T00:00:32.810Z,24.87
2022-12-15T00:01:02.889Z,24.84
2022-12-15T00:01:32.855Z,24.79
2022-12-15T00:02:03.085Z,24.84
2022-12-15T00:02:33.081Z,24.82
2022-12-15T00:03:03.156Z,24.87
2022-12-15T00:03:33.487Z,24.79
2022-12-15T00:04:03.078Z,24.84
2022-12-15T00:04:33.127Z,24.85
2022-12-15T00:05:03.151Z,24.82
2022-12-15T00:05:33.177Z,24.87
2022-12-15T00:06:03.204Z,24.82
2022-12-15T00:06:33.278Z,24.85
2022-12-15T00:07:03.505Z,24.85
2022-12-15T00:07:33.322Z,24.89
2022-12-15T00:08:03.346Z,24.87
2022-12-15T00:08:33.380Z,24.88
2022-12-15T00:09:03.401Z,24.84
2022-12-15T00:09:33.430Z,24.84
2022-12-15T00:10:03.452Z,24.84
2022-12-15T00:10:33.476Z,24.87
2022-12-15T00:11:03.504Z,24.87
2022-12-15T00:11:33.532Z,24.87
2022-12-15T00:12:03.560Z,24.85
2022-12-15T00:12:33.583Z,24.88
2022-12-15T00:13:03.609Z,24.87
2022-12-15T00:13:33.879Z,24.88
2022-12-15T00:14:03.642Z,24.90
2022-12-15T00:14:33.673Z,24.85
2022-12-15T00:15:03.710Z,24.85
2022-12-15T00:15:33.743Z,24.85
2022-12-15T00:16:03.808Z,24.95
2022-12-15T00:16:33.962Z,24.85
2022-12-15T00:17:03.871Z,24.83
2022-12-15T00:17:33.899Z,24.87
2022-12-15T00:18:03.941Z,24.87
2022-12-15T00:18:33.989Z,24.91
2022-12-15T00:19:04.055Z,24.88
2022-12-15T00:19:34.097Z,24.89
2022-12-15T00:20:04.106Z,24.84
2022-12-15T00:20:34.152Z,24.87
2022-12-15T00:21:04.179Z,24.88
2022-12-15T00:21:34.201Z,24.87
2022-12-15T00:22:04.231Z,24.85
2022-12-15T00:22:34.284Z,24.86
2022-12-15T00:23:04.312Z,24.80
2022-12-15T00:23:34.338Z,24.85
2022-12-15T00:24:04.370Z,24.80
2022-12-15T00:24:34.398Z,24.88
2022-12-15T00:25:04.417Z,24.82
2022-12-15T00:25:34.446Z,24.80
2022-12-15T00:26:04.465Z,24.82
2022-12-15T00:26:34.501Z,24.83
2022-12-15T00:27:04.531Z,24.80
2022-12-15T00:27:34.562Z,24.80
2022-12-15T00:28:04.584Z,24.80
2022-12-15T00:28:34.648Z,24.83
2022-12-15T00:29:04.675Z,24.75
2022-12-15T00:29:34.697Z,24.82
2022-12-15T00:30:04.747Z,24.80
2022-12-15T00:30:34.760Z,24.80
2022-12-15T00:31:04.882Z,24.88
2022-12-15T00:31:34.860Z,24.88
2022-12-15T00:32:04.888Z,24.86
2022-12-15T00:32:34.920Z,24.83
2022-12-15T00:33:04.940Z,24.83
2022-12-15T00:33:35.175Z,24.85
2022-12-15T00:34:05.073Z,24.82
2022-12-15T00:34:35.125Z,24.84
2022-12-15T00:35:05.125Z,24.85
2022-12-15T00:35:35.145Z,24.84
2022-12-15T00:36:05.176Z,24.80
2022-12-15T00:36:35.198Z,24.77
2022-12-15T00:37:05.224Z,24.71
2022-12-15T00:37:35.246Z,24.78
2022-12-15T00:38:05.269Z,24.79
2022-12-15T00:38:35.316Z,24.80
2022-12-15T00:39:05.337Z,24.76
2022-12-15T00:39:35.367Z,24.74
2022-12-15T00:40:05.441Z,24.73
2022-12-15T00:40:35.433Z,24.77
2022-12-15T00:41:05.461Z,24.68
2022-12-15T00:41:35.477Z,24.65
2022-12-15T00:42:05.502Z,24.70
2022-12-15T00:42:35.533Z,24.70
2022-12-15T00:43:05.571Z,24.66
2022-12-15T00:43:36.000Z,24.71
2022-12-15T00:44:05.583Z,24.65
2022-12-15T00:44:35.610Z,24.68
2022-12-15T00:45:05.631Z,24.68
2022-12-15T00:45:35.654Z,24.71
2022-12-15T00:46:05.788Z,24.70
2022-12-15T00:46:35.849Z,24.68
2022-12-15T00:47:05.971Z,24.65
2022-12-15T00:47:35.976Z,24.65
2022-12-15T00:48:05.965Z,24.66
2022-12-15T00:48:36.092Z,24.63
2022-12-15T00:49:06.081Z,24.62
2022-12-15T00:49:36.192Z,24.68
2022-12-15T00:50:06.325Z,24.71
2022-12-15T00:50:36.416Z,24.65
2022-12-15T00:51:06.533Z,24.68
2022-12-15T00:51:36.643Z,24.66
2022-12-15T00:52:06.759Z,24.61
2022-12-15T00:52:36.864Z,24.66
2022-12-15T00:53:06.980Z,24.66
2022-12-15T00:53:37.091Z,24.58
2022-12-15T00:54:07.208Z,24.58
2022-12-15T00:54:37.322Z,24.72
2022-12-15T00:55:07.433Z,24.65
2022-12-15T00:55:37.555Z,24.68
2022-12-15T00:56:07.600Z,24.68
2022-12-15T00:56:37.622Z,24.69
2022-12-15T00:57:07.652Z,24.69
2022-12-15T00:57:37.676Z,24.69
2022-12-15T00:58:07.709Z,24.63
2022-12-15T00:58:37.731Z,24.72
2022-12-15T00:59:07.759Z,24.71
2022-12-15T00:59:37.794Z,24.68
2022-12-15T01:00:07.819Z,24.72
2022-12-15T01:00:37.850Z,24.69
2022-12-15T01:01:07.875Z,24.66
2022-12-15T01:01:38.117Z,24.67
2022-12-15T01:02:08.040Z,24.69
2022-12-15T01:02:38.213Z,24.69
2022-12-15T01:03:08.285Z,24.69
2022-12-15T01:03:38.604Z,24.66
2022-12-15T01:04:08.292Z,24.69
2022-12-15T01:04:38.305Z,24.71
2022-12-15T01:05:08.352Z,24.71
2022-12-15T01:05:38.354Z,24.71
2022-12-15T01:06:08.376Z,24.67
2022-12-15T01:06:38.414Z,24.66
2022-12-15T01:07:08.432Z,24.67
2022-12-15T01:07:38.454Z,24.72
2022-12-15T01:08:08.483Z,24.71
2022-12-15T01:08:38.502Z,24.69
2022-12-15T01:09:08.532Z,24.69
2022-12-15T01:09:38.553Z,24.67
2022-12-15T01:10:08.582Z,24.67
2022-12-15T01:10:38.613Z,24.69
2022-12-15T01:11:08.636Z,24.67
2022-12-15T01:11:38.665Z,24.64
2022-12-15T01:12:08.701Z,24.64
2022-12-15T01:12:38.729Z,24.67
2022-12-15T01:13:08.756Z,24.74
2022-12-15T01:13:38.778Z,24.71
2022-12-15T01:14:08.806Z,24.69
2022-12-15T01:14:38.831Z,24.69
2022-12-15T01:15:08.859Z,24.65
2022-12-15T01:15:38.884Z,24.69
2022-12-15T01:16:09.032Z,24.69
2022-12-15T01:16:39.074Z,24.67
2022-12-15T01:17:09.091Z,24.71
2022-12-15T01:17:39.120Z,24.74
2022-12-15T01:18:09.140Z,24.62
2022-12-15T01:18:39.169Z,24.67
2022-12-15T01:19:09.194Z,24.71
2022-12-15T01:19:39.223Z,24.66
2022-12-15T01:20:09.249Z,24.64
2022-12-15T01:20:39.299Z,24.67
2022-12-15T01:21:09.299Z,24.66
2022-12-15T01:21:39.326Z,24.61
2022-12-15T01:22:09.394Z,24.66
2022-12-15T01:22:39.418Z,24.61
2022-12-15T01:23:09.441Z,24.71
2022-12-15T01:23:39.469Z,24.67
2022-12-15T01:24:09.487Z,24.65
2022-12-15T01:24:39.513Z,24.64
2022-12-15T01:25:09.539Z,24.67
2022-12-15T01:25:39.567Z,24.64
2022-12-15T01:26:09.592Z,24.67
2022-12-15T01:26:39.616Z,24.67
2022-12-15T01:27:09.667Z,24.67
2022-12-15T01:27:39.692Z,24.67
2022-12-15T01:28:09.715Z,24.65
2022-12-15T01:28:39.740Z,24.67
2022-12-15T01:29:09.775Z,24.62
2022-12-15T01:29:39.798Z,24.62
2022-12-15T01:30:09.820Z,24.64
2022-12-15T01:30:39.846Z,24.67
2022-12-15T01:31:09.931Z,24.64
2022-12-15T01:31:40.055Z,24.64
2022-12-15T01:32:09.958Z,24.67
2022-12-15T01:32:45.682Z,24.62
2022-12-15T01:33:10.023Z,24.67
2022-12-15T01:33:40.058Z,24.66
2022-12-15T01:34:10.084Z,24.67
2022-12-15T01:34:40.100Z,24.65
2022-12-15T01:35:10.128Z,24.74
2022-12-15T01:35:40.154Z,24.64
2022-12-15T01:36:10.209Z,24.64
2022-12-15T01:36:40.206Z,24.69
2022-12-15T01:37:10.222Z,24.64
2022-12-15T01:37:40.246Z,24.61
2022-12-15T01:38:10.273Z,24.63
2022-12-15T01:38:40.294Z,24.67
2022-12-15T01:39:10.328Z,24.66
2022-12-15T01:39:40.351Z,24.58
2022-12-15T01:40:10.381Z,24.60
2022-12-15T01:40:40.395Z,24.58
2022-12-15T01:41:10.423Z,24.60
2022-12-15T01:41:40.447Z,24.54
2022-12-15T01:42:10.517Z,24.54
2022-12-15T01:42:40.578Z,24.50
2022-12-15T01:43:10.668Z,24.54
2022-12-15T01:43:40.705Z,24.52
2022-12-15T01:44:10.731Z,24.56
2022-12-15T01:44:40.764Z,24.52
2022-12-15T01:45:10.790Z,24.48
2022-12-15T01:45:40.802Z,24.46
2022-12-15T01:46:10.942Z,24.46
2022-12-15T01:46:41.148Z,24.46
2022-12-15T01:47:11.193Z,24.49
2022-12-15T01:47:41.194Z,24.51
2022-12-15T01:48:11.302Z,24.48
2022-12-15T01:48:41.420Z,24.43
2022-12-15T01:49:11.532Z,24.48
2022-12-15T01:49:41.652Z,24.45
2022-12-15T01:50:11.765Z,24.39
2022-12-15T01:50:41.874Z,24.38
2022-12-15T01:51:11.993Z,24.40
2022-12-15T01:51:42.133Z,24.45
2022-12-15T01:52:12.211Z,24.42
2022-12-15T01:52:42.331Z,24.35
2022-12-15T01:53:12.483Z,24.42
2022-12-15T01:53:42.465Z,24.43
2022-12-15T01:54:12.580Z,24.40
2022-12-15T01:54:42.690Z,24.42
2022-12-15T01:55:12.800Z,24.42
2022-12-15T01:55:42.809Z,24.37
2022-12-15T01:56:12.834Z,24.41
2022-12-15T01:56:42.862Z,24.38
2022-12-15T01:57:12.892Z,24.40
2022-12-15T01:57:42.919Z,24.37
2022-12-15T01:58:12.998Z,24.34
2022-12-15T01:58:42.963Z,24.38
2022-12-15T01:59:12.988Z,24.43
2022-12-15T01:59:43.010Z,24.41
2022-12-15T02:00:13.038Z,24.43
2022-12-15T02:00:43.098Z,24.40
2022-12-15T02:01:13.214Z,24.38
2022-12-15T02:01:43.259Z,24.39
2022-12-15T02:02:13.293Z,24.43
2022-12-15T02:02:43.299Z,24.41
2022-12-15T02:03:13.263Z,24.43
2022-12-15T02:03:43.306Z,24.48
2022-12-15T02:04:13.357Z,24.46
2022-12-15T02:04:43.378Z,24.46
2022-12-15T02:05:13.406Z,24.46
2022-12-15T02:05:43.430Z,24.49
2022-12-15T02:06:13.465Z,24.47
2022-12-15T02:06:43.485Z,24.42
2022-12-15T02:07:13.543Z,24.46
2022-12-15T02:07:43.532Z,24.49
2022-12-15T02:08:13.567Z,24.49
2022-12-15T02:08:43.593Z,24.49
2022-12-15T02:09:13.618Z,24.51
2022-12-15T02:09:43.648Z,24.50
2022-12-15T02:10:13.671Z,24.53
2022-12-15T02:10:43.703Z,24.60
2022-12-15T02:11:13.727Z,24.56
2022-12-15T02:11:43.764Z,24.46
2022-12-15T02:12:13.782Z,24.53
2022-12-15T02:12:43.809Z,24.55
2022-12-15T02:13:13.848Z,24.55
2022-12-15T02:13:43.879Z,24.51
2022-12-15T02:14:13.916Z,24.51
2022-12-15T02:14:43.941Z,24.56
2022-12-15T02:15:13.963Z,24.53
2022-12-15T02:15:43.987Z,24.55
2022-12-15T02:16:14.088Z,24.53
2022-12-15T02:16:44.183Z,24.59
2022-12-15T02:17:14.226Z,24.51
2022-12-15T02:17:44.248Z,24.62
2022-12-15T02:18:14.279Z,24.57
2022-12-15T02:18:44.297Z,24.56
2022-12-15T02:19:14.340Z,24.59
2022-12-15T02:19:44.364Z,24.57
2022-12-15T02:20:14.387Z,24.56
2022-12-15T02:20:44.417Z,24.56
2022-12-15T02:21:14.447Z,24.56
2022-12-15T02:21:44.460Z,24.59
2022-12-15T02:22:14.487Z,24.60
2022-12-15T02:22:44.553Z,24.56
2022-12-15T02:23:14.541Z,24.54
2022-12-15T02:23:44.563Z,24.51
2022-12-15T02:24:14.614Z,24.53
2022-12-15T02:24:44.635Z,24.54
2022-12-15T02:25:14.689Z,24.56
2022-12-15T02:25:44.711Z,24.57
2022-12-15T02:26:14.737Z,24.57
2022-12-15T02:26:44.787Z,24.57
2022-12-15T02:27:14.813Z,24.56
2022-12-15T02:27:44.827Z,24.62
2022-12-15T02:28:14.937Z,24.53
2022-12-15T02:28:44.956Z,24.53
2022-12-15T02:29:14.985Z,24.56
2022-12-15T02:29:45.002Z,24.56
2022-12-15T02:30:15.027Z,24.61
2022-12-15T02:30:45.066Z,24.62
2022-12-15T02:31:15.125Z,24.56
2022-12-15T02:31:45.176Z,24.61
2022-12-15T02:32:15.234Z,24.54
2022-12-15T02:32:45.321Z,24.57
2022-12-15T02:33:15.357Z,24.64
2022-12-15T02:33:45.379Z,24.57
2022-12-15T02:34:15.486Z,24.60
2022-12-15T02:34:45.516Z,24.56
2022-12-15T02:35:15.539Z,24.57
2022-12-15T02:35:45.569Z,24.62
2022-12-15T02:36:15.597Z,24.59
2022-12-15T02:36:45.614Z,24.61
2022-12-15T02:37:15.632Z,24.59
2022-12-15T02:37:45.658Z,24.64
2022-12-15T02:38:16.031Z,24.57
2022-12-15T02:38:45.780Z,24.61
2022-12-15T02:39:15.807Z,24.62
2022-12-15T02:39:45.829Z,24.62
2022-12-15T02:40:15.856Z,24.59
2022-12-15T02:40:45.877Z,24.64
2022-12-15T02:41:15.905Z,24.59
2022-12-15T02:41:45.937Z,24.66
2022-12-15T02:42:15.965Z,24.59
2022-12-15T02:42:46.003Z,24.58
2022-12-15T02:43:16.034Z,24.54
2022-12-15T02:43:46.077Z,24.59
2022-12-15T02:44:16.096Z,24.54
2022-12-15T02:44:46.137Z,24.54
2022-12-15T02:45:16.157Z,24.61
2022-12-15T02:45:46.227Z,24.56
2022-12-15T02:46:16.277Z,24.56
2022-12-15T02:46:46.303Z,24.57
2022-12-15T02:47:16.414Z,24.61
2022-12-15T02:47:46.559Z,24.62
2022-12-15T02:48:16.399Z,24.60
2022-12-15T02:48:46.520Z,24.57
2022-12-15T02:49:16.630Z,24.62
2022-12-15T02:49:46.741Z,24.64
2022-12-15T02:50:16.764Z,24.59
2022-12-15T02:50:46.874Z,24.67
2022-12-15T02:51:16.992Z,24.59
2022-12-15T02:51:47.101Z,24.62
2022-12-15T02:52:17.210Z,24.61
2022-12-15T02:52:47.208Z,24.59
2022-12-15T02:53:17.321Z,24.59
2022-12-15T02:53:47.470Z,24.62
2022-12-15T02:54:17.429Z,24.59
2022-12-15T02:54:47.539Z,24.61
2022-12-15T02:55:17.657Z,24.67
2022-12-15T02:55:47.662Z,24.56
2022-12-15T02:56:17.671Z,24.62
2022-12-15T02:56:47.688Z,24.62
2022-12-15T02:57:17.711Z,24.53
2022-12-15T02:57:47.740Z,24.60
2022-12-15T02:58:17.784Z,24.58
2022-12-15T02:58:47.813Z,24.58
2022-12-15T02:59:17.838Z,24.56
2022-12-15T02:59:47.885Z,24.58
2022-12-15T03:00:17.913Z,24.51
2022-12-15T03:00:48.065Z,24.56
2022-12-15T03:01:18.167Z,24.55
2022-12-15T03:01:48.119Z,24.50
2022-12-15T03:02:18.171Z,24.53
2022-12-15T03:02:48.261Z,24.56
2022-12-15T03:03:18.259Z,24.51
2022-12-15T03:03:48.282Z,24.50
2022-12-15T03:04:18.311Z,24.51
2022-12-15T03:04:48.371Z,24.50
2022-12-15T03:05:18.400Z,24.55
2022-12-15T03:05:48.428Z,24.58
2022-12-15T03:06:18.456Z,24.55
2022-12-15T03:06:48.481Z,24.53
2022-12-15T03:07:18.510Z,24.51
2022-12-15T03:07:49.735Z,24.55
2022-12-15T03:08:18.608Z,24.51
2022-12-15T03:08:48.649Z,24.54
2022-12-15T03:09:18.838Z,24.57
2022-12-15T03:09:48.748Z,24.54
2022-12-15T03:10:18.783Z,24.51
2022-12-15T03:10:48.809Z,24.56
2022-12-15T03:11:18.827Z,24.56
2022-12-15T03:11:48.852Z,24.64
2022-12-15T03:12:18.880Z,24.57
2022-12-15T03:12:48.905Z,24.54
2022-12-15T03:13:18.940Z,24.59
2022-12-15T03:13:50.038Z,24.56
2022-12-15T03:14:19.059Z,24.63
2022-12-15T03:14:49.107Z,24.60
2022-12-15T03:15:19.129Z,24.62
2022-12-15T03:15:49.164Z,24.65
2022-12-15T03:16:19.261Z,24.60
2022-12-15T03:16:49.375Z,24.63
2022-12-15T03:17:19.296Z,24.62
2022-12-15T03:17:49.323Z,24.67
2022-12-15T03:18:19.351Z,24.65
2022-12-15T03:18:49.366Z,24.59
2022-12-15T03:19:19.391Z,24.62
2022-12-15T03:19:49.632Z,24.67
2022-12-15T03:20:19.490Z,24.59
2022-12-15T03:20:49.514Z,24.68
2022-12-15T03:21:19.542Z,24.59
2022-12-15T03:21:49.572Z,24.62
2022-12-15T03:22:19.596Z,24.67
2022-12-15T03:22:49.622Z,24.65
2022-12-15T03:23:19.645Z,24.71
2022-12-15T03:23:49.704Z,24.58
2022-12-15T03:24:19.740Z,24.62
2022-12-15T03:24:49.792Z,24.63
2022-12-15T03:25:19.794Z,24.67
2022-12-15T03:25:50.066Z,24.63
2022-12-15T03:26:19.827Z,24.65
2022-12-15T03:26:49.864Z,24.60
2022-12-15T03:27:19.878Z,24.58
2022-12-15T03:27:49.903Z,24.59
2022-12-15T03:28:19.952Z,24.54
2022-12-15T03:28:49.975Z,24.59
2022-12-15T03:29:19.997Z,24.60
2022-12-15T03:29:50.084Z,24.60
2022-12-15T03:30:20.106Z,24.60
2022-12-15T03:30:50.564Z,24.57
2022-12-15T03:31:20.229Z,24.62
2022-12-15T03:31:50.459Z,24.59
2022-12-15T03:32:20.397Z,24.57
2022-12-15T03:32:50.284Z,24.62
2022-12-15T03:33:20.322Z,24.63
2022-12-15T03:33:50.356Z,24.60
2022-12-15T03:34:20.370Z,24.61
2022-12-15T03:34:50.398Z,24.55
2022-12-15T03:35:20.420Z,24.55
2022-12-15T03:35:50.444Z,24.60
2022-12-15T03:36:20.473Z,24.59
2022-12-15T03:36:50.490Z,24.59
2022-12-15T03:37:20.516Z,24.57
2022-12-15T03:37:50.541Z,24.55
2022-12-15T03:38:20.587Z,24.60
2022-12-15T03:38:50.608Z,24.54
2022-12-15T03:39:20.641Z,24.57
2022-12-15T03:39:50.658Z,24.51
2022-12-15T03:40:20.711Z,24.54
2022-12-15T03:40:50.709Z,24.55
2022-12-15T03:41:20.729Z,24.54
2022-12-15T03:41:50.759Z,24.59
2022-12-15T03:42:20.786Z,24.54
2022-12-15T03:42:50.802Z,24.55
2022-12-15T03:43:20.828Z,24.62
2022-12-15T03:43:50.855Z,24.52
2022-12-15T03:44:20.875Z,24.57
2022-12-15T03:44:50.899Z,24.57
2022-12-15T03:45:20.926Z,24.55
2022-12-15T03:45:50.979Z,24.52
2022-12-15T03:46:21.000Z,24.57
2022-12-15T03:46:50.975Z,24.55
2022-12-15T03:47:21.078Z,24.52
2022-12-15T03:47:51.192Z,24.54
2022-12-15T03:48:21.301Z,24.60
2022-12-15T03:48:51.414Z,24.59
2022-12-15T03:49:21.523Z,24.62
2022-12-15T03:49:51.645Z,24.57
2022-12-15T03:50:21.753Z,24.60
2022-12-15T03:50:51.864Z,24.62
2022-12-15T03:51:21.977Z,24.57
2022-12-15T03:51:52.092Z,24.59
2022-12-15T03:52:22.203Z,24.59
2022-12-15T03:52:52.322Z,24.60
2022-12-15T03:53:22.424Z,24.63
2022-12-15T03:53:52.539Z,24.60
2022-12-15T03:54:22.643Z,24.64
2022-12-15T03:54:52.757Z,24.59
2022-12-15T03:55:22.891Z,24.59
2022-12-15T03:55:52.883Z,24.56
2022-12-15T03:56:22.902Z,24.57
2022-12-15T03:56:52.926Z,24.54
2022-12-15T03:57:22.950Z,24.62
2022-12-15T03:57:52.980Z,24.59
2022-12-15T03:58:23.005Z,24.57
2022-12-15T03:58:53.033Z,24.56
2022-12-15T03:59:23.060Z,24.56
2022-12-15T03:59:53.102Z,24.53
2022-12-15T04:00:23.135Z,24.53
2022-12-15T04:00:53.162Z,24.54
2022-12-15T04:01:23.364Z,24.49
2022-12-15T04:01:53.422Z,24.54
2022-12-15T04:02:23.589Z,24.54
2022-12-15T04:02:53.516Z,24.56
2022-12-15T04:03:23.489Z,24.56
2022-12-15T04:03:58.650Z,24.53
2022-12-15T04:04:23.455Z,24.57
2022-12-15T04:04:53.474Z,24.60
2022-12-15T04:05:23.507Z,24.59
2022-12-15T04:05:53.539Z,24.56
2022-12-15T04:06:23.561Z,24.54
2022-12-15T04:06:53.587Z,24.54
2022-12-15T04:07:23.621Z,24.60
2022-12-15T04:07:53.654Z,24.57
2022-12-15T04:08:23.671Z,24.59
2022-12-15T04:08:53.698Z,24.55
2022-12-15T04:09:23.720Z,24.62
2022-12-15T04:09:53.750Z,24.55
2022-12-15T04:10:26.271Z,24.57
2022-12-15T04:10:53.851Z,24.55
2022-12-15T04:11:23.850Z,24.60
2022-12-15T04:11:53.868Z,24.62
2022-12-15T04:12:23.888Z,24.57
2022-12-15T04:12:53.913Z,24.58
2022-12-15T04:13:23.936Z,24.55
2022-12-15T04:13:53.961Z,24.58
2022-12-15T04:14:23.987Z,24.60
2022-12-15T04:14:54.009Z,24.60
2022-12-15T04:15:24.038Z,24.58
2022-12-15T04:15:54.083Z,24.55
2022-12-15T04:16:24.136Z,24.60
2022-12-15T04:16:54.225Z,24.58
2022-12-15T04:17:24.217Z,24.60
2022-12-15T04:17:54.247Z,24.61
2022-12-15T04:18:24.266Z,24.58
2022-12-15T04:18:54.295Z,24.60
2022-12-15T04:19:24.317Z,24.57
2022-12-15T04:19:54.343Z,24.58
2022-12-15T04:20:24.377Z,24.62
2022-12-15T04:20:54.392Z,24.57
2022-12-15T04:21:24.419Z,24.58
2022-12-15T04:21:54.443Z,24.52
2022-12-15T04:22:24.471Z,24.58
2022-12-15T04:22:54.497Z,24.55
2022-12-15T04:23:24.527Z,24.53
2022-12-15T04:23:54.552Z,24.61
2022-12-15T04:24:24.578Z,24.57
2022-12-15T04:24:54.598Z,24.60
2022-12-15T04:25:24.624Z,24.60
2022-12-15T04:25:54.656Z,24.56
2022-12-15T04:26:24.716Z,24.57
2022-12-15T04:26:54.721Z,24.61
2022-12-15T04:27:24.745Z,24.56
2022-12-15T04:27:59.861Z,24.57
2022-12-15T04:28:24.825Z,24.60
2022-12-15T04:28:54.853Z,24.58
2022-12-15T04:29:24.883Z,24.60
2022-12-15T04:29:54.915Z,24.57
2022-12-15T04:30:24.939Z,24.55
2022-12-15T04:30:55.090Z,24.58
2022-12-15T04:31:25.238Z,24.56
2022-12-15T04:31:55.151Z,24.52
2022-12-15T04:32:25.169Z,24.56
2022-12-15T04:32:55.208Z,24.55
2022-12-15T04:33:30.595Z,24.55
2022-12-15T04:33:55.280Z,24.60
2022-12-15T04:34:25.298Z,24.58
2022-12-15T04:34:55.322Z,24.60
2022-12-15T04:35:25.345Z,24.63
2022-12-15T04:35:55.369Z,24.58
2022-12-15T04:36:25.392Z,24.58
2022-12-15T04:36:55.420Z,24.58
2022-12-15T04:37:25.444Z,24.59
2022-12-15T04:37:55.482Z,24.57
2022-12-15T04:38:25.502Z,24.57
2022-12-15T04:38:55.533Z,24.51
2022-12-15T04:39:25.554Z,24.59
2022-12-15T04:39:55.579Z,24.56
2022-12-15T04:40:25.608Z,24.53
2022-12-15T04:40:55.623Z,24.56
2022-12-15T04:41:25.650Z,24.53
2022-12-15T04:41:55.740Z,24.49
2022-12-15T04:42:25.730Z,24.50
2022-12-15T04:42:55.771Z,24.44
2022-12-15T04:43:25.798Z,24.38
2022-12-15T04:43:55.839Z,24.36
2022-12-15T04:44:25.859Z,24.35
2022-12-15T04:44:55.884Z,24.32
2022-12-15T04:45:25.911Z,24.24
2022-12-15T04:45:55.998Z,24.24
2022-12-15T04:46:26.159Z,24.29
2022-12-15T04:46:56.029Z,24.18
2022-12-15T04:47:26.143Z,24.18
2022-12-15T04:47:56.315Z,24.12
2022-12-15T04:48:26.299Z,24.12
2022-12-15T04:48:56.412Z,24.11
2022-12-15T04:49:26.522Z,24.06
2022-12-15T04:49:56.639Z,24.11
2022-12-15T04:50:26.754Z,24.14
2022-12-15T04:50:56.871Z,24.09
2022-12-15T04:51:26.977Z,24.06
2022-12-15T04:51:57.089Z,24.07
2022-12-15T04:52:27.227Z,24.02
2022-12-15T04:52:57.218Z,24.03
2022-12-15T04:53:27.626Z,24.07
2022-12-15T04:53:57.424Z,24.04
2022-12-15T04:54:27.536Z,24.09
2022-12-15T04:54:57.649Z,24.02
2022-12-15T04:55:27.770Z,24.03
2022-12-15T04:55:57.787Z,24.01
2022-12-15T04:56:27.811Z,24.03
2022-12-15T04:56:57.843Z,23.98
2022-12-15T04:57:27.901Z,24.00
2022-12-15T04:57:57.906Z,23.98
2022-12-15T04:58:27.928Z,24.08
2022-12-15T04:58:57.950Z,23.99
2022-12-15T04:59:27.973Z,24.01
2022-12-15T04:59:57.989Z,24.07
2022-12-15T05:00:28.014Z,24.05
2022-12-15T05:00:58.035Z,24.11
2022-12-15T05:01:28.190Z,24.06
2022-12-15T05:01:58.256Z,24.16
2022-12-15T05:02:28.389Z,24.05
2022-12-15T05:02:58.178Z,24.06
2022-12-15T05:03:28.201Z,24.18
2022-12-15T05:03:58.267Z,24.08
2022-12-15T05:04:28.409Z,24.13
2022-12-15T05:04:58.317Z,24.07
2022-12-15T05:05:28.361Z,24.13
2022-12-15T05:05:58.380Z,24.13
2022-12-15T05:06:28.420Z,24.08
2022-12-15T05:06:58.444Z,24.10
2022-12-15T05:07:28.475Z,24.17
2022-12-15T05:07:58.495Z,24.15
2022-12-15T05:08:28.595Z,24.20
2022-12-15T05:08:58.626Z,24.12
2022-12-15T05:09:28.647Z,24.17
2022-12-15T05:10:02.971Z,24.19
2022-12-15T05:10:28.778Z,24.16
2022-12-15T05:10:58.795Z,24.21
2022-12-15T05:11:28.820Z,24.22
2022-12-15T05:11:58.845Z,24.21
2022-12-15T05:12:28.875Z,24.20
2022-12-15T05:12:58.934Z,24.20
2022-12-15T05:13:29.370Z,24.25
2022-12-15T05:13:59.038Z,24.22
2022-12-15T05:14:29.058Z,24.13
2022-12-15T05:14:59.089Z,24.20
2022-12-15T05:15:29.170Z,24.17
2022-12-15T05:15:59.275Z,24.16
2022-12-15T05:16:29.205Z,24.22
2022-12-15T05:16:59.288Z,24.16
2022-12-15T05:17:29.450Z,24.13
2022-12-15T05:17:59.452Z,24.21
2022-12-15T05:18:29.481Z,24.13
2022-12-15T05:18:59.502Z,24.19
2022-12-15T05:19:29.530Z,24.20
2022-12-15T05:19:59.554Z,24.20
2022-12-15T05:20:29.576Z,24.18
2022-12-15T05:20:59.621Z,24.18
2022-12-15T05:21:29.651Z,24.15
2022-12-15T05:21:59.717Z,24.27
2022-12-15T05:22:29.799Z,24.20
2022-12-15T05:22:59.823Z,24.23
2022-12-15T05:23:30.361Z,24.20
2022-12-15T05:23:59.936Z,24.19
2022-12-15T05:24:29.962Z,24.19
2022-12-15T05:24:59.993Z,24.14
2022-12-15T05:25:30.015Z,24.16
2022-12-15T05:26:00.059Z,24.19
2022-12-15T05:26:30.076Z,24.14
2022-12-15T05:27:00.111Z,24.16
2022-12-15T05:27:30.145Z,24.21
2022-12-15T05:28:00.169Z,24.16
2022-12-15T05:28:30.223Z,24.24
2022-12-15T05:29:00.220Z,24.25
2022-12-15T05:29:30.244Z,24.19
2022-12-15T05:30:00.267Z,24.30
2022-12-15T05:30:30.291Z,24.28
2022-12-15T05:31:00.427Z,24.27
2022-12-15T05:31:30.449Z,24.28
2022-12-15T05:32:00.359Z,24.36
2022-12-15T05:32:30.392Z,24.33
2022-12-15T05:33:00.430Z,24.44
2022-12-15T05:33:31.009Z,24.44
2022-12-15T05:34:05.142Z,24.35
2022-12-15T05:34:30.612Z,24.42
2022-12-15T05:35:00.628Z,24.42
2022-12-15T05:35:30.661Z,24.50
2022-12-15T05:36:00.679Z,24.46
2022-12-15T05:36:30.707Z,24.53
2022-12-15T05:37:00.735Z,24.46
2022-12-15T05:37:30.784Z,24.46
2022-12-15T05:38:00.807Z,24.44
2022-12-15T05:38:30.836Z,24.44
2022-12-15T05:39:00.867Z,24.45
2022-12-15T05:39:30.888Z,24.49
2022-12-15T05:40:00.910Z,24.49
2022-12-15T05:40:30.939Z,24.39
2022-12-15T05:41:00.957Z,24.45
2022-12-15T05:41:30.999Z,24.42
2022-12-15T05:42:01.021Z,24.44
2022-12-15T05:42:31.046Z,24.42
2022-12-15T05:43:01.072Z,24.42
2022-12-15T05:43:31.451Z,24.39
2022-12-15T05:44:01.196Z,24.39
2022-12-15T05:44:31.196Z,24.41
2022-12-15T05:45:01.216Z,24.45
2022-12-15T05:45:31.278Z,24.42
2022-12-15T05:46:01.328Z,24.74
2022-12-15T05:46:31.440Z,24.58
2022-12-15T05:47:01.430Z,24.44
2022-12-15T05:47:31.546Z,24.44
2022-12-15T05:48:01.658Z,24.44
2022-12-15T05:48:31.771Z,24.60
2022-12-15T05:49:01.888Z,24.79
2022-12-15T05:49:32.007Z,25.46
2022-12-15T05:50:02.123Z,25.15
2022-12-15T05:50:32.232Z,25.89
2022-12-15T05:51:02.344Z,25.28
2022-12-15T05:51:32.522Z,25.33
2022-12-15T05:52:02.513Z,25.66
2022-12-15T05:52:32.621Z,25.66
2022-12-15T05:53:02.742Z,26.07
2022-12-15T05:53:33.362Z,27.31
2022-12-15T05:54:02.934Z,27.66
2022-12-15T05:54:33.056Z,27.47
2022-12-15T05:55:03.159Z,27.02
2022-12-15T05:55:33.159Z,27.22
2022-12-15T05:56:03.179Z,27.61
2022-12-15T05:56:33.208Z,27.79
2022-12-15T05:57:03.232Z,28.09
2022-12-15T05:57:33.257Z,28.33
2022-12-15T05:58:03.293Z,28.65
2022-12-15T05:58:33.311Z,28.92
2022-12-15T05:59:03.363Z,28.96
2022-12-15T05:59:33.368Z,29.21
2022-12-15T06:00:03.399Z,29.37
2022-12-15T06:00:33.419Z,29.88
2022-12-15T06:01:03.448Z,30.50
2022-12-15T06:01:33.529Z,27.48
2022-12-15T06:02:03.599Z,24.62
2022-12-15T06:02:33.718Z,25.09
2022-12-15T06:03:03.846Z,23.91
2022-12-15T06:03:34.191Z,21.32
2022-12-15T06:04:03.775Z,20.11
2022-12-15T06:04:33.838Z,21.39
2022-12-15T06:05:03.917Z,21.03
2022-12-15T06:05:33.946Z,20.70
2022-12-15T06:06:03.966Z,20.71
2022-12-15T06:06:33.998Z,24.04
2022-12-15T06:07:04.030Z,23.84
2022-12-15T06:07:34.054Z,24.09
2022-12-15T06:08:04.099Z,24.58
2022-12-15T06:08:34.125Z,24.82
2022-12-15T06:09:04.158Z,25.10
2022-12-15T06:09:34.186Z,25.15
2022-12-15T06:10:04.207Z,25.23
2022-12-15T06:10:34.229Z,25.23
2022-12-15T06:11:04.282Z,25.33
2022-12-15T06:11:34.323Z,25.32
2022-12-15T06:12:04.378Z,25.29
2022-12-15T06:12:34.414Z,25.31
2022-12-15T06:13:04.465Z,25.33
2022-12-15T06:13:34.851Z,25.22
2022-12-15T06:14:04.487Z,25.19
2022-12-15T06:14:34.537Z,25.18
2022-12-15T06:15:04.539Z,25.21
2022-12-15T06:15:34.564Z,25.20
2022-12-15T06:16:04.624Z,25.12
2022-12-15T06:16:38.313Z,25.07
2022-12-15T06:17:04.722Z,25.07
2022-12-15T06:17:34.743Z,25.01
2022-12-15T06:18:04.770Z,24.93
2022-12-15T06:18:34.795Z,24.94
2022-12-15T06:19:04.819Z,24.88
2022-12-15T06:19:34.849Z,24.83
2022-12-15T06:20:04.875Z,24.80
2022-12-15T06:20:34.900Z,24.81
2022-12-15T06:21:04.921Z,24.75
2022-12-15T06:21:34.982Z,24.72
2022-12-15T06:22:05.004Z,24.66
2022-12-15T06:22:35.053Z,24.65
2022-12-15T06:23:05.110Z,24.59
2022-12-15T06:23:35.164Z,24.62
2022-12-15T06:24:05.187Z,24.56
2022-12-15T06:24:35.202Z,24.61
2022-12-15T06:25:05.224Z,24.52
2022-12-15T06:25:35.247Z,24.54
2022-12-15T06:26:05.278Z,24.51
2022-12-15T06:26:35.310Z,24.49